Abis Bremen — PCJO — position and weather

sailwx.info

Track history (hours):
 
Tides and Currents Weather Stations Pressure Air Temp Water Temp Dewpoint Dewpoint Depression Visibility Wind Speed Wind Dir Waves Ship Positions

Abis Bremen

Last reported at 2017-Dec-11 07:18 UTC. Time now 2017-Dec-12 04:29 UTC.
Position N 55°58' W 006°56'.

Length 90 m; draft 5.2 m.

Type: Ship. MMSI: 246778880.

Date/timePositionNaut miles runAvg speedWind from/ knotsBaromVisibWave heightAir tempDewpointWater temp
2017-Dec-11 07:18N 55°58' W 006°56'3 8.6
2017-Dec-11 07:00N 55°56' W 006°55'4 8.7
2017-Dec-11 06:30N 55°51' W 006°54'4 8.6
2017-Dec-11 06:00N 55°47' W 006°52'4 8.8
2017-Dec-11 05:30N 55°43' W 006°51'4 8.6
2017-Dec-11 05:00N 55°39' W 006°49'4 7.7
2017-Dec-11 04:30N 55°35' W 006°45'4 8.3
2017-Dec-11 04:00N 55°33' W 006°39'4 8.5
2017-Dec-11 03:30N 55°32' W 006°32'5 9.0
2017-Dec-11 03:00N 55°30' W 006°25'4 8.8
2017-Dec-11 02:30N 55°28' W 006°18'5 9.1
2017-Dec-11 02:00N 55°26' W 006°11'5 9.4
2017-Dec-11 01:30N 55°25' W 006°03'4 8.8
2017-Dec-11 01:00N 55°21' W 005°58'5 9.7
2017-Dec-11 00:30N 55°17' W 005°53'5 9.6
2017-Dec-11 00:00N 55°13' W 005°50'510.4
2017-Dec-10 23:30N 55°08' W 005°47'1211.1
2017-Dec-10 22:24N 54°56' W 005°41'511.5
2017-Dec-10 22:00N 54°52' W 005°39'611.3
2017-Dec-10 21:31N 54°46' W 005°36'510.0
2017-Dec-10 21:01N 54°42' W 005°41'510.4
2017-Dec-10 20:31N 54°41' W 005°49'4 1.7
2017-Dec-10 18:24N 54°38' W 005°53'0 0.0
2017-Dec-10 17:36N 54°38' W 005°53'0 0.0
2017-Dec-10 17:30N 54°38' W 005°53'0 0.0
2017-Dec-10 15:33N 54°38' W 005°53'0 0.0
2017-Dec-10 15:27N 54°38' W 005°53'0 0.0
2017-Dec-10 14:06N 54°38' W 005°53'0 0.0
2017-Dec-10 13:51N 54°38' W 005°53'0 0.0
2017-Dec-10 11:42N 54°38' W 005°53'0 0.0
2017-Dec-10 11:15N 54°38' W 005°53'0 0.0
2017-Dec-10 10:42N 54°38' W 005°53'0 0.0
2017-Dec-10 07:48N 54°38' W 005°53'0 0.0
2017-Dec-10 07:30N 54°38' W 005°53'0 0.0
2017-Dec-10 07:00N 54°38' W 005°53'0 0.0
2017-Dec-10 06:30N 54°38' W 005°53'0 0.0
2017-Dec-10 06:00N 54°38' W 005°53'0 0.0
2017-Dec-10 05:30N 54°38' W 005°53'0 0.0
2017-Dec-10 05:00N 54°38' W 005°53'0 0.0
2017-Dec-10 04:24N 54°38' W 005°53'0 0.0
2017-Dec-10 04:00N 54°38' W 005°53'0 0.0
2017-Dec-10 03:30N 54°38' W 005°53'0 0.0
2017-Dec-10 03:00N 54°38' W 005°53'0 0.0
2017-Dec-10 02:30N 54°38' W 005°53'0 0.0
2017-Dec-10 02:00N 54°38' W 005°53'0 0.0
2017-Dec-10 01:18N 54°38' W 005°53'0 0.0
2017-Dec-10 00:54N 54°38' W 005°53'0 0.0
2017-Dec-10 00:30N 54°38' W 005°53'0 0.0
2017-Dec-10 00:00N 54°38' W 005°53'0 0.0
2017-Dec-09 23:30N 54°38' W 005°53'0 0.0
2017-Dec-09 23:00N 54°38' W 005°53'0 0.0
2017-Dec-09 21:54N 54°38' W 005°53'0 0.0
2017-Dec-09 21:24N 54°38' W 005°53'0 0.0
2017-Dec-09 21:00N 54°38' W 005°53'0 0.0
2017-Dec-09 20:30N 54°38' W 005°53'0 0.0
2017-Dec-09 20:00N 54°38' W 005°53'0 0.0
2017-Dec-09 19:30N 54°38' W 005°53'0 0.0
2017-Dec-09 18:57N 54°38' W 005°53'0 0.0
2017-Dec-09 18:12N 54°38' W 005°53'0 0.0
2017-Dec-09 17:57N 54°38' W 005°53'0 0.0
2017-Dec-09 17:30N 54°38' W 005°53'0 0.0
2017-Dec-09 16:42N 54°38' W 005°53'0 0.0
2017-Dec-09 16:30N 54°38' W 005°53'0 0.0
2017-Dec-09 15:57N 54°38' W 005°53'0 0.0
2017-Dec-09 15:18N 54°38' W 005°53'0 0.0
2017-Dec-09 15:00N 54°38' W 005°53'0 0.0
2017-Dec-09 13:27N 54°38' W 005°53'0 0.0
2017-Dec-09 12:48N 54°38' W 005°53'0 0.0
2017-Dec-09 12:30N 54°38' W 005°53'0 0.0
2017-Dec-09 11:03N 54°38' W 005°53'0 0.0
2017-Dec-09 10:51N 54°38' W 005°53'0 0.0
2017-Dec-09 09:18N 54°38' W 005°53'0 0.0
2017-Dec-09 08:06N 54°38' W 005°53'0 0.0
2017-Dec-09 07:48N 54°38' W 005°53'0 0.0
2017-Dec-09 07:24N 54°38' W 005°53'0 0.0
2017-Dec-09 06:57N 54°38' W 005°53'0 0.0
2017-Dec-09 06:18N 54°38' W 005°53'0 0.0
2017-Dec-09 06:00N 54°38' W 005°53'0 0.0
2017-Dec-09 05:27N 54°38' W 005°53'0 0.0
2017-Dec-09 04:36N 54°38' W 005°53'0 0.0
2017-Dec-09 04:21N 54°38' W 005°53'0 0.0
2017-Dec-09 03:57N 54°38' W 005°53'0 0.0
2017-Dec-09 03:06N 54°38' W 005°53'0 0.1
2017-Dec-09 03:00N 54°38' W 005°53'0 0.0
2017-Dec-09 02:30N 54°38' W 005°53'0 0.0
2017-Dec-09 01:45N 54°38' W 005°53'0 0.0
2017-Dec-09 00:12N 54°38' W 005°53'0 0.0
2017-Dec-08 23:03N 54°38' W 005°53'0 0.1
2017-Dec-08 22:57N 54°38' W 005°53'0 0.0
2017-Dec-08 22:06N 54°38' W 005°53'0 0.1
2017-Dec-08 22:00N 54°38' W 005°53'0 0.0
2017-Dec-08 21:21N 54°38' W 005°53'0 0.0
2017-Dec-08 20:42N 54°38' W 005°53'0 0.0
2017-Dec-08 19:30N 54°38' W 005°53'0 0.0
2017-Dec-08 17:54N 54°38' W 005°53'0 0.0
2017-Dec-08 17:30N 54°38' W 005°53'0 0.0
2017-Dec-08 16:54N 54°38' W 005°53'0 0.0
2017-Dec-08 14:54N 54°38' W 005°53'0 0.0
2017-Dec-08 14:18N 54°38' W 005°53'0 0.0
2017-Dec-08 13:48N 54°38' W 005°53'0 0.0
2017-Dec-08 13:30N 54°38' W 005°53'0 0.0
2017-Dec-08 12:57N 54°38' W 005°53'0 0.0
2017-Dec-08 12:27N 54°38' W 005°53'0 0.0
2017-Dec-08 12:00N 54°38' W 005°53'0 0.0
2017-Dec-08 07:24N 54°38' W 005°53'0 0.0
2017-Dec-08 06:57N 54°38' W 005°53'0 0.0
2017-Dec-08 05:06N 54°38' W 005°53'0 0.0
2017-Dec-08 05:00N 54°38' W 005°53'0 0.0
2017-Dec-08 04:30N 54°38' W 005°53'0 0.0
2017-Dec-08 03:54N 54°38' W 005°53'0 0.0
2017-Dec-08 03:30N 54°38' W 005°53'0 0.0
2017-Dec-08 03:00N 54°38' W 005°53'0 0.0
2017-Dec-08 02:30N 54°38' W 005°53'0 0.0
2017-Dec-08 02:00N 54°38' W 005°53'0 0.0
2017-Dec-08 01:30N 54°38' W 005°53'0 0.0
2017-Dec-08 01:00N 54°38' W 005°53'0 0.0
2017-Dec-08 00:30N 54°38' W 005°53'0 0.0
2017-Dec-07 23:54N 54°38' W 005°53'0 0.0
2017-Dec-07 23:30N 54°38' W 005°53'0 0.0
2017-Dec-07 23:00N 54°38' W 005°53'0 0.0
2017-Dec-07 22:24N 54°38' W 005°53'0 0.0
2017-Dec-07 22:00N 54°38' W 005°53'0 0.0
2017-Dec-07 21:12N 54°38' W 005°53'0 0.0
2017-Dec-07 21:00N 54°38' W 005°53'0 0.0
2017-Dec-07 16:18N 54°38' W 005°53'0 0.0
2017-Dec-07 16:00N 54°38' W 005°53'0 0.0
2017-Dec-07 14:24N 54°38' W 005°53'0 0.0
2017-Dec-07 11:30N 54°38' W 005°53'0 0.0
2017-Dec-07 10:54N 54°38' W 005°53'0 0.0
2017-Dec-07 06:57N 54°38' W 005°53'0 0.0
2017-Dec-07 05:21N 54°38' W 005°53'0 0.0
2017-Dec-07 04:51N 54°38' W 005°53'0 0.0
2017-Dec-07 03:36N 54°38' W 005°53'0 0.0
2017-Dec-07 03:30N 54°38' W 005°53'0 0.0
2017-Dec-07 03:00N 54°38' W 005°53'0 0.0
2017-Dec-07 02:30N 54°38' W 005°53'0 0.0
2017-Dec-07 01:57N 54°38' W 005°53'0 0.0
2017-Dec-06 21:42N 54°38' W 005°53'  
2017-Dec-04 04:12N 51°05' W 005°52'311.8
2017-Dec-04 03:56N 51°01' W 005°52'511.8
2017-Dec-04 03:30N 50°56' W 005°52'611.8
2017-Dec-04 03:00N 50°51' W 005°52'811.8
2017-Dec-04 02:21N 50°43' W 005°52'2311.8
2017-Dec-04 00:25N 50°20' W 005°52'2011.8
2017-Dec-03 22:41N 49°60' W 005°51'312.2
2017-Dec-03 22:25N 49°59' W 005°47'612.5
2017-Dec-03 21:56N 49°58' W 005°37'712.4
2017-Dec-03 21:24N 49°57' W 005°27'512.7
2017-Dec-03 20:58N 49°56' W 005°19'613.7
2017-Dec-03 20:30N 49°56' W 005°09'612.2
2017-Dec-03 20:00N 49°57' W 004°59'611.7
2017-Dec-03 19:30N 49°58' W 004°51'611.2
2017-Dec-03 19:00N 49°59' W 004°42'510.8
2017-Dec-03 18:30N 50°01' W 004°34'510.4
2017-Dec-03 18:00N 50°02' W 004°26'510.2
2017-Dec-03 17:30N 50°02' W 004°18'510.1
2017-Dec-03 17:00N 50°03' W 004°10'510.1
2017-Dec-03 16:30N 50°04' W 004°03'510.3
2017-Dec-03 16:00N 50°05' W 003°55'510.7
2017-Dec-03 15:30N 50°06' W 003°47'611.3
2017-Dec-03 15:00N 50°07' W 003°38'612.0
2017-Dec-03 14:30N 50°08' W 003°29'612.4
2017-Dec-03 14:00N 50°09' W 003°19'612.6
2017-Dec-03 13:30N 50°10' W 003°09'713.2
2017-Dec-03 13:00N 50°11' W 002°59'713.7
2017-Dec-03 12:30N 50°12' W 002°49'5810.7
2017-Dec-03 07:07N 50°23' W 001°20'1 8.1
2017-Dec-03 07:00N 50°23' W 001°19'4 7.9
2017-Dec-03 06:30N 50°24' W 001°12'4 8.0
2017-Dec-03 05:59N 50°25' W 001°06'1610.1
2017-Dec-03 04:26N 50°28' W 000°42'512.5
2017-Dec-03 04:00N 50°29' W 000°33'612.8
2017-Dec-03 03:30N 50°30' W 000°24'713.1
2017-Dec-03 03:00N 50°31' W 000°13'713.3
2017-Dec-03 02:30N 50°32' W 000°03'713.3
2017-Dec-03 02:00N 50°34' E 000°07'713.2
2017-Dec-03 01:30N 50°36' E 000°17'612.9
2017-Dec-03 01:00N 50°37' E 000°27'612.4
2017-Dec-03 00:30N 50°40' E 000°36'612.1
2017-Dec-03 00:00N 50°43' E 000°44'611.4
2017-Dec-02 23:30N 50°46' E 000°51'610.7
2017-Dec-02 22:55N 50°50' E 000°59'410.1
2017-Dec-02 22:30N 50°53' E 001°04'5 9.9
2017-Dec-02 22:00N 50°56' E 001°10'510.0
2017-Dec-02 21:30N 50°59' E 001°16'5 9.9
2017-Dec-02 21:01N 51°03' E 001°21'4 1.7
2017-Dec-02 18:46N 51°07' E 001°19'0 0.0
2017-Dec-02 17:16N 51°07' E 001°19'  
Track history (hours):
 
Tides and Currents Weather Stations Pressure Air Temp Water Temp Dewpoint Dewpoint Depression Visibility Wind Speed Wind Dir Waves Ship Positions

Abis Bremen

Last reported at 2017-Dec-11 07:18 UTC. Time now 2017-Dec-12 04:29 UTC.
Position N 55°58' W 006°56'.

Length 90 m; draft 5.2 m.

Type: Ship. MMSI: 246778880.

Date/timePositionNaut miles runAvg speedWind from/ knotsBaromVisibWave heightAir tempDewpointWater temp
2017-Dec-11 07:18N 55°58' W 006°56'3 8.6
2017-Dec-11 07:00N 55°56' W 006°55'4 8.7
2017-Dec-11 06:30N 55°51' W 006°54'4 8.6
2017-Dec-11 06:00N 55°47' W 006°52'4 8.8
2017-Dec-11 05:30N 55°43' W 006°51'4 8.6
2017-Dec-11 05:00N 55°39' W 006°49'4 7.7
2017-Dec-11 04:30N 55°35' W 006°45'4 8.3
2017-Dec-11 04:00N 55°33' W 006°39'4 8.5
2017-Dec-11 03:30N 55°32' W 006°32'5 9.0
2017-Dec-11 03:00N 55°30' W 006°25'4 8.8
2017-Dec-11 02:30N 55°28' W 006°18'5 9.1
2017-Dec-11 02:00N 55°26' W 006°11'5 9.4
2017-Dec-11 01:30N 55°25' W 006°03'4 8.8
2017-Dec-11 01:00N 55°21' W 005°58'5 9.7
2017-Dec-11 00:30N 55°17' W 005°53'5 9.6
2017-Dec-11 00:00N 55°13' W 005°50'510.4
2017-Dec-10 23:30N 55°08' W 005°47'1211.1
2017-Dec-10 22:24N 54°56' W 005°41'511.5
2017-Dec-10 22:00N 54°52' W 005°39'611.3
2017-Dec-10 21:31N 54°46' W 005°36'510.0
2017-Dec-10 21:01N 54°42' W 005°41'510.4
2017-Dec-10 20:31N 54°41' W 005°49'4 1.7
2017-Dec-10 18:24N 54°38' W 005°53'0 0.0
2017-Dec-10 17:36N 54°38' W 005°53'0 0.0
2017-Dec-10 17:30N 54°38' W 005°53'0 0.0
2017-Dec-10 15:33N 54°38' W 005°53'0 0.0
2017-Dec-10 15:27N 54°38' W 005°53'0 0.0
2017-Dec-10 14:06N 54°38' W 005°53'0 0.0
2017-Dec-10 13:51N 54°38' W 005°53'0 0.0
2017-Dec-10 11:42N 54°38' W 005°53'0 0.0
2017-Dec-10 11:15N 54°38' W 005°53'0 0.0
2017-Dec-10 10:42N 54°38' W 005°53'0 0.0
2017-Dec-10 07:48N 54°38' W 005°53'0 0.0
2017-Dec-10 07:30N 54°38' W 005°53'0 0.0
2017-Dec-10 07:00N 54°38' W 005°53'0 0.0
2017-Dec-10 06:30N 54°38' W 005°53'0 0.0
2017-Dec-10 06:00N 54°38' W 005°53'0 0.0
2017-Dec-10 05:30N 54°38' W 005°53'0 0.0
2017-Dec-10 05:00N 54°38' W 005°53'0 0.0
2017-Dec-10 04:24N 54°38' W 005°53'0 0.0
2017-Dec-10 04:00N 54°38' W 005°53'0 0.0
2017-Dec-10 03:30N 54°38' W 005°53'0 0.0
2017-Dec-10 03:00N 54°38' W 005°53'0 0.0
2017-Dec-10 02:30N 54°38' W 005°53'0 0.0
2017-Dec-10 02:00N 54°38' W 005°53'0 0.0
2017-Dec-10 01:18N 54°38' W 005°53'0 0.0
2017-Dec-10 00:54N 54°38' W 005°53'0 0.0
2017-Dec-10 00:30N 54°38' W 005°53'0 0.0
2017-Dec-10 00:00N 54°38' W 005°53'0 0.0
2017-Dec-09 23:30N 54°38' W 005°53'0 0.0
2017-Dec-09 23:00N 54°38' W 005°53'0 0.0
2017-Dec-09 21:54N 54°38' W 005°53'0 0.0
2017-Dec-09 21:24N 54°38' W 005°53'0 0.0
2017-Dec-09 21:00N 54°38' W 005°53'0 0.0
2017-Dec-09 20:30N 54°38' W 005°53'0 0.0
2017-Dec-09 20:00N 54°38' W 005°53'0 0.0
2017-Dec-09 19:30N 54°38' W 005°53'0 0.0
2017-Dec-09 18:57N 54°38' W 005°53'0 0.0
2017-Dec-09 18:12N 54°38' W 005°53'0 0.0
2017-Dec-09 17:57N 54°38' W 005°53'0 0.0
2017-Dec-09 17:30N 54°38' W 005°53'0 0.0
2017-Dec-09 16:42N 54°38' W 005°53'0 0.0
2017-Dec-09 16:30N 54°38' W 005°53'0 0.0
2017-Dec-09 15:57N 54°38' W 005°53'0 0.0
2017-Dec-09 15:18N 54°38' W 005°53'0 0.0
2017-Dec-09 15:00N 54°38' W 005°53'0 0.0
2017-Dec-09 13:27N 54°38' W 005°53'0 0.0
2017-Dec-09 12:48N 54°38' W 005°53'0 0.0
2017-Dec-09 12:30N 54°38' W 005°53'0 0.0
2017-Dec-09 11:03N 54°38' W 005°53'0 0.0
2017-Dec-09 10:51N 54°38' W 005°53'0 0.0
2017-Dec-09 09:18N 54°38' W 005°53'0 0.0
2017-Dec-09 08:06N 54°38' W 005°53'0 0.0
2017-Dec-09 07:48N 54°38' W 005°53'0 0.0
2017-Dec-09 07:24N 54°38' W 005°53'0 0.0
2017-Dec-09 06:57N 54°38' W 005°53'0 0.0
2017-Dec-09 06:18N 54°38' W 005°53'0 0.0
2017-Dec-09 06:00N 54°38' W 005°53'0 0.0
2017-Dec-09 05:27N 54°38' W 005°53'0 0.0
2017-Dec-09 04:36N 54°38' W 005°53'0 0.0
2017-Dec-09 04:21N 54°38' W 005°53'0 0.0
2017-Dec-09 03:57N 54°38' W 005°53'0 0.0
2017-Dec-09 03:06N 54°38' W 005°53'0 0.1
2017-Dec-09 03:00N 54°38' W 005°53'0 0.0
2017-Dec-09 02:30N 54°38' W 005°53'0 0.0
2017-Dec-09 01:45N 54°38' W 005°53'0 0.0
2017-Dec-09 00:12N 54°38' W 005°53'0 0.0
2017-Dec-08 23:03N 54°38' W 005°53'0 0.1
2017-Dec-08 22:57N 54°38' W 005°53'0 0.0
2017-Dec-08 22:06N 54°38' W 005°53'0 0.1
2017-Dec-08 22:00N 54°38' W 005°53'0 0.0
2017-Dec-08 21:21N 54°38' W 005°53'0 0.0
2017-Dec-08 20:42N 54°38' W 005°53'0 0.0
2017-Dec-08 19:30N 54°38' W 005°53'0 0.0
2017-Dec-08 17:54N 54°38' W 005°53'0 0.0
2017-Dec-08 17:30N 54°38' W 005°53'0 0.0
2017-Dec-08 16:54N 54°38' W 005°53'0 0.0
2017-Dec-08 14:54N 54°38' W 005°53'0 0.0
2017-Dec-08 14:18N 54°38' W 005°53'0 0.0
2017-Dec-08 13:48N 54°38' W 005°53'0 0.0
2017-Dec-08 13:30N 54°38' W 005°53'0 0.0
2017-Dec-08 12:57N 54°38' W 005°53'0 0.0
2017-Dec-08 12:27N 54°38' W 005°53'0 0.0
2017-Dec-08 12:00N 54°38' W 005°53'0 0.0
2017-Dec-08 07:24N 54°38' W 005°53'0 0.0
2017-Dec-08 06:57N 54°38' W 005°53'0 0.0
2017-Dec-08 05:06N 54°38' W 005°53'0 0.0
2017-Dec-08 05:00N 54°38' W 005°53'0 0.0
2017-Dec-08 04:30N 54°38' W 005°53'0 0.0
2017-Dec-08 03:54N 54°38' W 005°53'0 0.0
2017-Dec-08 03:30N 54°38' W 005°53'0 0.0
2017-Dec-08 03:00N 54°38' W 005°53'0 0.0
2017-Dec-08 02:30N 54°38' W 005°53'0 0.0
2017-Dec-08 02:00N 54°38' W 005°53'0 0.0
2017-Dec-08 01:30N 54°38' W 005°53'0 0.0
2017-Dec-08 01:00N 54°38' W 005°53'0 0.0
2017-Dec-08 00:30N 54°38' W 005°53'0 0.0
2017-Dec-07 23:54N 54°38' W 005°53'0 0.0
2017-Dec-07 23:30N 54°38' W 005°53'0 0.0
2017-Dec-07 23:00N 54°38' W 005°53'0 0.0
2017-Dec-07 22:24N 54°38' W 005°53'0 0.0
2017-Dec-07 22:00N 54°38' W 005°53'0 0.0
2017-Dec-07 21:12N 54°38' W 005°53'0 0.0
2017-Dec-07 21:00N 54°38' W 005°53'0 0.0
2017-Dec-07 16:18N 54°38' W 005°53'0 0.0
2017-Dec-07 16:00N 54°38' W 005°53'0 0.0
2017-Dec-07 14:24N 54°38' W 005°53'0 0.0
2017-Dec-07 11:30N 54°38' W 005°53'0 0.0
2017-Dec-07 10:54N 54°38' W 005°53'0 0.0
2017-Dec-07 06:57N 54°38' W 005°53'0 0.0
2017-Dec-07 05:21N 54°38' W 005°53'0 0.0
2017-Dec-07 04:51N 54°38' W 005°53'0 0.0
2017-Dec-07 03:36N 54°38' W 005°53'0 0.0
2017-Dec-07 03:30N 54°38' W 005°53'0 0.0
2017-Dec-07 03:00N 54°38' W 005°53'0 0.0
2017-Dec-07 02:30N 54°38' W 005°53'0 0.0
2017-Dec-07 01:57N 54°38' W 005°53'0 0.0
2017-Dec-06 21:42N 54°38' W 005°53'  
2017-Dec-04 04:12N 51°05' W 005°52'311.8
2017-Dec-04 03:56N 51°01' W 005°52'511.8
2017-Dec-04 03:30N 50°56' W 005°52'611.8
2017-Dec-04 03:00N 50°51' W 005°52'811.8
2017-Dec-04 02:21N 50°43' W 005°52'2311.8
2017-Dec-04 00:25N 50°20' W 005°52'2011.8
2017-Dec-03 22:41N 49°60' W 005°51'312.2
2017-Dec-03 22:25N 49°59' W 005°47'612.5
2017-Dec-03 21:56N 49°58' W 005°37'712.4
2017-Dec-03 21:24N 49°57' W 005°27'512.7
2017-Dec-03 20:58N 49°56' W 005°19'613.7
2017-Dec-03 20:30N 49°56' W 005°09'612.2
2017-Dec-03 20:00N 49°57' W 004°59'611.7
2017-Dec-03 19:30N 49°58' W 004°51'611.2
2017-Dec-03 19:00N 49°59' W 004°42'510.8
2017-Dec-03 18:30N 50°01' W 004°34'510.4
2017-Dec-03 18:00N 50°02' W 004°26'510.2
2017-Dec-03 17:30N 50°02' W 004°18'510.1
2017-Dec-03 17:00N 50°03' W 004°10'510.1
2017-Dec-03 16:30N 50°04' W 004°03'510.3
2017-Dec-03 16:00N 50°05' W 003°55'510.7
2017-Dec-03 15:30N 50°06' W 003°47'611.3
2017-Dec-03 15:00N 50°07' W 003°38'612.0
2017-Dec-03 14:30N 50°08' W 003°29'612.4
2017-Dec-03 14:00N 50°09' W 003°19'612.6
2017-Dec-03 13:30N 50°10' W 003°09'713.2
2017-Dec-03 13:00N 50°11' W 002°59'713.7
2017-Dec-03 12:30N 50°12' W 002°49'5810.7
2017-Dec-03 07:07N 50°23' W 001°20'1 8.1
2017-Dec-03 07:00N 50°23' W 001°19'4 7.9
2017-Dec-03 06:30N 50°24' W 001°12'4 8.0
2017-Dec-03 05:59N 50°25' W 001°06'1610.1
2017-Dec-03 04:26N 50°28' W 000°42'512.5
2017-Dec-03 04:00N 50°29' W 000°33'612.8
2017-Dec-03 03:30N 50°30' W 000°24'713.1
2017-Dec-03 03:00N 50°31' W 000°13'713.3
2017-Dec-03 02:30N 50°32' W 000°03'713.3
2017-Dec-03 02:00N 50°34' E 000°07'713.2
2017-Dec-03 01:30N 50°36' E 000°17'612.9
2017-Dec-03 01:00N 50°37' E 000°27'612.4
2017-Dec-03 00:30N 50°40' E 000°36'612.1
2017-Dec-03 00:00N 50°43' E 000°44'611.4
2017-Dec-02 23:30N 50°46' E 000°51'610.7
2017-Dec-02 22:55N 50°50' E 000°59'410.1
2017-Dec-02 22:30N 50°53' E 001°04'5 9.9
2017-Dec-02 22:00N 50°56' E 001°10'510.0
2017-Dec-02 21:30N 50°59' E 001°16'5 9.9
2017-Dec-02 21:01N 51°03' E 001°21'4 1.7
2017-Dec-02 18:46N 51°07' E 001°19'0 0.0
2017-Dec-02 17:16N 51°07' E 001°19'  

Dump ship's entire track history